KHOB/HOB METAR and TAF weather

Enter ICAO airport designator
Station Type Date Time Source
KHOB METAR 2019/02/22 23:50 UTC NOAA

KHOB 222350Z 18012KT 10SM CLR 19/M10 A2971


Station Type Date Time Source
KHOB Decoded METAR 2019/02/22 23:50 UTC NOAA

Hobbs / Lea County, NM, United States (KHOB) 32-41N 103-13W
Feb 22, 2019 - 06:50 PM EST / 2019.02.22 2350 UTC
Wind: from the S (180 degrees) at 14 MPH (12 KT):0
Visibility: 10 mile(s):0
Sky conditions: clear
Temperature: 66 F (19 C)
Dew Point: 14 F (-10 C)
Relative Humidity: 13%
Pressure (altimeter): 29.71 in. Hg (1006 hPa)
ob: KHOB 222350Z 18012KT 10SM CLR 19/M10 A2971
cycle: 0

Station Type Date Time Source
KHOB TAF 2019/02/22 21:57 UTC NOAA

TAF
AMD KHOB 222054Z 2221/2318 16014G24KT P6SM SKC
FM230600 26025G35KT P6SM SCT250
FM231300 27032G42KT 5SM BLDU SKC


Example: see airport list